Time;durP1;ratioP1;P1;durP2;ratioP2;P2;SDS_P1;SDS_P2;PMS_P1;PMS_P2;Temp;Humidity;BMP_temperature;BMP_pressure;BME280_temperature;BME280_humidity;BME280_pressure;Samples;Min_cycle;Max_cycle;Signal;HPM_P1;HPM_P2
2022/03/06 00:08:07;;;;;;;;;72.00;50.50;;;;;;;;2;261081491;261081491;-81
2022/03/06 00:16:22;;;;;;;;;78.00;54.50;;;;;;;;2;261079784;261079784;-81
2022/03/06 00:25:23;;;;;;;;;69.00;50.50;;;;;;;;2;261078998;261078998;-81
2022/03/06 00:36:58;;;;;;;;;64.50;44.50;;;;;;;;2;261078505;261078505;-80
2022/03/06 00:45:58;;;;;;;;;70.00;51.00;;;;;;;;2;261078327;261078327;-81
2022/03/06 00:54:13;;;;;;;;;72.50;55.50;;;;;;;;2;261082486;261082486;-81
2022/03/06 01:03:17;;;;;;;;;63.50;45.50;;;;;;;;2;261074188;261074188;-81
2022/03/06 01:11:34;;;;;;;;;62.50;48.50;;;;;;;;2;261081261;261081261;-82
2022/03/06 01:20:35;;;;;;;;;79.50;52.50;;;;;;;;2;261077471;261077471;-81
2022/03/06 01:28:50;;;;;;;;;69.50;54.50;;;;;;;;2;261079073;261079073;-81
2022/03/06 01:37:51;;;;;;;;;66.50;51.50;;;;;;;;2;261076125;261076125;-82
2022/03/06 01:46:06;;;;;;;;;61.50;45.00;;;;;;;;2;261075099;261075099;-80
2022/03/06 01:55:07;;;;;;;;;55.00;46.50;;;;;;;;2;261080325;261080325;-80
2022/03/06 02:03:23;;;;;;;;;71.00;50.00;;;;;;;;2;261076749;261076749;-81
2022/03/06 02:12:24;;;;;;;;;49.50;42.50;;;;;;;;2;261077791;261077791;-81
2022/03/06 02:20:39;;;;;;;;;60.00;45.50;;;;;;;;2;261076033;261076033;-80
2022/03/06 02:29:41;;;;;;;;;54.50;44.50;;;;;;;;2;261075410;261075410;-80
2022/03/06 02:37:56;;;;;;;;;57.50;44.50;;;;;;;;2;261078694;261078694;-81
2022/03/06 02:46:57;;;;;;;;;66.00;42.50;;;;;;;;2;261079478;261079478;-81
2022/03/06 02:55:13;;;;;;;;;66.50;44.50;;;;;;;;2;261076316;261076316;-82
2022/03/06 03:04:13;;;;;;;;;69.00;46.50;;;;;;;;2;261078838;261078838;-80
2022/03/06 03:12:29;;;;;;;;;67.50;47.50;;;;;;;;2;261076359;261076359;-81
2022/03/06 03:21:30;;;;;;;;;59.00;47.00;;;;;;;;2;261076617;261076617;-81
2022/03/06 03:29:45;;;;;;;;;53.50;42.00;;;;;;;;2;261076629;261076629;-80
2022/03/06 03:38:46;;;;;;;;;64.50;48.50;;;;;;;;2;261077749;261077749;-80
2022/03/06 03:47:01;;;;;;;;;53.00;40.50;;;;;;;;2;261077697;261077697;-81
2022/03/06 03:56:04;;;;;;;;;63.00;50.50;;;;;;;;2;261076557;261076557;-80
2022/03/06 04:04:19;;;;;;;;;54.00;45.50;;;;;;;;2;261079288;261079288;-80
2022/03/06 04:13:20;;;;;;;;;58.00;38.50;;;;;;;;2;261075585;261075585;-80
2022/03/06 04:21:35;;;;;;;;;60.50;42.50;;;;;;;;2;261074476;261074476;-80
2022/03/06 04:30:36;;;;;;;;;57.50;43.00;;;;;;;;2;261077115;261077115;-81
2022/03/06 04:38:51;;;;;;;;;67.00;48.50;;;;;;;;2;261077123;261077123;-81
2022/03/06 04:47:52;;;;;;;;;49.50;40.00;;;;;;;;2;261077812;261077812;-81
2022/03/06 04:56:07;;;;;;;;;61.50;48.50;;;;;;;;2;261076226;261076226;-81
2022/03/06 05:05:09;;;;;;;;;57.50;48.00;;;;;;;;2;261077357;261077357;-81
2022/03/06 05:13:24;;;;;;;;;68.00;39.50;;;;;;;;2;261075039;261075039;-80
2022/03/06 05:22:25;;;;;;;;;56.50;47.50;;;;;;;;2;261075231;261075231;-81
2022/03/06 05:30:41;;;;;;;;;51.00;41.00;;;;;;;;2;261075106;261075106;-81
2022/03/06 05:39:41;;;;;;;;;59.00;47.00;;;;;;;;2;261076920;261076920;-81
2022/03/06 05:47:57;;;;;;;;;75.50;51.00;;;;;;;;2;261077846;261077846;-80
2022/03/06 05:56:57;;;;;;;;;71.00;48.50;;;;;;;;2;261074531;261074531;-80
2022/03/06 06:05:15;;;;;;;;;49.50;30.00;;;;;;;;2;261074739;261074739;-81
2022/03/06 06:14:15;;;;;;;;;67.50;46.00;;;;;;;;2;261075329;261075329;-80
2022/03/06 06:22:31;;;;;;;;;68.00;56.50;;;;;;;;2;261074297;261074297;-80
2022/03/06 06:31:32;;;;;;;;;57.50;46.50;;;;;;;;2;261075789;261075789;-81
2022/03/06 06:39:47;;;;;;;;;57.00;45.00;;;;;;;;2;261076886;261076886;-81
2022/03/06 06:48:47;;;;;;;;;67.00;46.50;;;;;;;;2;261073193;261073193;-81
2022/03/06 06:57:03;;;;;;;;;70.00;43.50;;;;;;;;2;261076331;261076331;-80
2022/03/06 07:06:03;;;;;;;;;64.00;42.00;;;;;;;;2;261077493;261077493;-81
2022/03/06 07:14:19;;;;;;;;;71.00;48.00;;;;;;;;2;261078666;261078666;-80
2022/03/06 07:23:19;;;;;;;;;57.50;42.50;;;;;;;;2;261076444;261076444;-80
2022/03/06 07:31:35;;;;;;;;;57.50;44.50;;;;;;;;2;261076786;261076786;-80
2022/03/06 07:40:35;;;;;;;;;60.50;43.00;;;;;;;;2;261079819;261079819;-80
2022/03/06 07:48:51;;;;;;;;;66.50;41.00;;;;;;;;2;261075155;261075155;-79
2022/03/06 07:57:51;;;;;;;;;72.00;51.50;;;;;;;;2;261078850;261078850;-80
2022/03/06 08:06:06;;;;;;;;;57.50;41.00;;;;;;;;2;261076198;261076198;-81
2022/03/06 08:15:10;;;;;;;;;64.50;54.00;;;;;;;;2;261077134;261077134;-80
2022/03/06 08:23:26;;;;;;;;;56.50;45.50;;;;;;;;2;261079214;261079214;-78
2022/03/06 08:32:26;;;;;;;;;73.50;49.00;;;;;;;;2;261077589;261077589;-79
2022/03/06 08:40:42;;;;;;;;;61.50;52.00;;;;;;;;2;261076216;261076216;-80
2022/03/06 08:49:42;;;;;;;;;68.00;47.00;;;;;;;;2;261075882;261075882;-79
2022/03/06 08:57:58;;;;;;;;;63.00;40.00;;;;;;;;2;261076947;261076947;-80
2022/03/06 09:06:58;;;;;;;;;58.50;44.00;;;;;;;;2;261076415;261076415;-81
2022/03/06 09:15:14;;;;;;;;;66.00;44.00;;;;;;;;2;261080557;261080557;-80
2022/03/06 09:24:14;;;;;;;;;59.50;45.50;;;;;;;;2;261080027;261080027;-81
2022/03/06 09:32:29;;;;;;;;;50.50;42.00;;;;;;;;2;261081753;261081753;-80
2022/03/06 09:41:30;;;;;;;;;48.50;42.00;;;;;;;;2;261078088;261078088;-80
2022/03/06 09:49:46;;;;;;;;;51.00;42.50;;;;;;;;2;261086961;261086961;-80
2022/03/06 09:58:49;;;;;;;;;52.00;36.50;;;;;;;;2;261087124;261087124;-81
2022/03/06 10:07:04;;;;;;;;;38.50;34.50;;;;;;;;2;261082783;261082783;-82
2022/03/06 10:16:12;;;;;;;;;60.00;37.00;;;;;;;;2;261080088;261080088;-82
2022/03/06 10:24:28;;;;;;;;;39.00;35.50;;;;;;;;2;261081789;261081789;-82
2022/03/06 10:33:28;;;;;;;;;46.50;38.00;;;;;;;;2;261081007;261081007;-81
2022/03/06 10:41:47;;;;;;;;;42.50;35.50;;;;;;;;2;261077865;261077865;-81
2022/03/06 10:50:47;;;;;;;;;25.00;25.00;;;;;;;;2;261080707;261080707;-81
2022/03/06 10:59:04;;;;;;;;;36.00;31.00;;;;;;;;2;261081437;261081437;-81
2022/03/06 11:08:04;;;;;;;;;48.50;35.00;;;;;;;;2;261079231;261079231;-80
2022/03/06 11:16:20;;;;;;;;;38.00;22.00;;;;;;;;2;261084332;261084332;-82
2022/03/06 11:25:21;;;;;;;;;38.00;22.00;;;;;;;;2;261085168;261085168;-82
2022/03/06 11:33:40;;;;;;;;;26.00;26.00;;;;;;;;2;261080788;261080788;-80
2022/03/06 11:42:54;;;;;;;;;28.00;16.50;;;;;;;;2;261083046;261083046;-80
2022/03/06 11:51:12;;;;;;;;;19.50;19.50;;;;;;;;2;261083116;261083116;-80
2022/03/06 12:00:20;;;;;;;;;25.50;24.00;;;;;;;;2;261076550;261076550;-82
2022/03/06 12:08:40;;;;;;;;;25.00;19.50;;;;;;;;2;261078472;261078472;-81
2022/03/06 12:17:41;;;;;;;;;28.00;23.00;;;;;;;;2;261079371;261079371;-81
2022/03/06 12:25:58;;;;;;;;;16.50;16.50;;;;;;;;2;261073709;261073709;-82
2022/03/06 12:35:02;;;;;;;;;11.50;11.50;;;;;;;;2;261075835;261075835;-81
2022/03/06 12:43:21;;;;;;;;;21.00;21.00;;;;;;;;2;261075106;261075106;-82
2022/03/06 12:52:28;;;;;;;;;35.50;20.00;;;;;;;;2;261077132;261077132;-82
2022/03/06 13:00:43;;;;;;;;;29.50;22.50;;;;;;;;2;261076412;261076412;-82
2022/03/06 13:09:44;;;;;;;;;23.00;21.50;;;;;;;;2;261081981;261081981;-82
2022/03/06 13:18:04;;;;;;;;;20.00;20.00;;;;;;;;2;261072429;261072429;-82
2022/03/06 13:27:04;;;;;;;;;16.00;16.00;;;;;;;;2;261079192;261079192;-82
2022/03/06 13:35:28;;;;;;;;;19.50;19.50;;;;;;;;2;261076345;261076345;-82
2022/03/06 13:44:29;;;;;;;;;29.50;18.50;;;;;;;;2;261078874;261078874;-82
2022/03/06 13:52:45;;;;;;;;;26.50;18.50;;;;;;;;2;261075290;261075290;-82
2022/03/06 14:01:45;;;;;;;;;17.50;17.50;;;;;;;;2;261075215;261075215;-82
2022/03/06 14:10:01;;;;;;;;;25.00;21.00;;;;;;;;2;261075617;261075617;-82
2022/03/06 14:19:02;;;;;;;;;21.00;21.00;;;;;;;;2;261075427;261075427;-81
2022/03/06 14:27:18;;;;;;;;;21.00;21.00;;;;;;;;2;261080674;261080674;-81
2022/03/06 14:36:19;;;;;;;;;9.50;1.00;;;;;;;;2;261078054;261078054;-83
2022/03/06 14:44:34;;;;;;;;;19.50;19.50;;;;;;;;2;261080851;261080851;-80
2022/03/06 14:53:35;;;;;;;;;28.00;28.00;;;;;;;;2;261077594;261077594;-82
2022/03/06 15:01:50;;;;;;;;;14.50;14.50;;;;;;;;2;261079955;261079955;-81
2022/03/06 15:10:51;;;;;;;;;27.50;27.50;;;;;;;;2;261077956;261077956;-82
2022/03/06 15:19:06;;;;;;;;;33.50;21.50;;;;;;;;2;261081379;261081379;-82
2022/03/06 15:28:08;;;;;;;;;21.50;21.50;;;;;;;;2;261078850;261078850;-82
2022/03/06 15:36:25;;;;;;;;;20.00;20.00;;;;;;;;2;261084635;261084635;-81
2022/03/06 15:45:25;;;;;;;;;34.00;20.50;;;;;;;;2;261085658;261085658;-84
2022/03/06 15:53:41;;;;;;;;;22.50;22.50;;;;;;;;2;261084117;261084117;-81
2022/03/06 16:02:41;;;;;;;;;33.00;23.50;;;;;;;;2;261078862;261078862;-83
2022/03/06 16:10:58;;;;;;;;;27.00;15.00;;;;;;;;2;261079959;261079959;-83
2022/03/06 16:19:58;;;;;;;;;34.50;19.50;;;;;;;;2;261079831;261079831;-81
2022/03/06 16:28:14;;;;;;;;;32.50;31.50;;;;;;;;2;261081656;261081656;-82
2022/03/06 16:37:14;;;;;;;;;22.50;16.50;;;;;;;;2;261076227;261076227;-82
2022/03/06 16:45:30;;;;;;;;;34.50;19.50;;;;;;;;2;261079458;261079458;-81
2022/03/06 16:54:30;;;;;;;;;23.50;18.00;;;;;;;;2;261086667;261086667;-81
2022/03/06 17:02:46;;;;;;;;;17.00;17.00;;;;;;;;2;261079506;261079506;-82
2022/03/06 17:11:47;;;;;;;;;17.50;12.50;;;;;;;;2;261077212;261077212;-83
2022/03/06 17:20:03;;;;;;;;;21.50;21.50;;;;;;;;2;261080816;261080816;-80
2022/03/06 17:29:06;;;;;;;;;31.50;28.00;;;;;;;;2;261078479;261078479;-80
2022/03/06 17:37:22;;;;;;;;;21.00;21.00;;;;;;;;2;261080954;261080954;-77
2022/03/06 17:46:23;;;;;;;;;39.50;19.50;;;;;;;;2;261080275;261080275;-79
2022/03/06 17:54:39;;;;;;;;;24.50;20.00;;;;;;;;2;261086697;261086697;-78
2022/03/06 18:03:39;;;;;;;;;44.00;31.00;;;;;;;;2;261082818;261082818;-79
2022/03/06 18:11:55;;;;;;;;;34.00;32.00;;;;;;;;2;261079965;261079965;-78
2022/03/06 18:20:55;;;;;;;;;30.00;29.00;;;;;;;;2;261079226;261079226;-77
2022/03/06 18:29:10;;;;;;;;;40.50;36.50;;;;;;;;2;261078212;261078212;-79
2022/03/06 18:38:11;;;;;;;;;51.50;32.50;;;;;;;;2;261078999;261078999;-78
2022/03/06 18:46:26;;;;;;;;;38.00;34.50;;;;;;;;2;261082881;261082881;-78
2022/03/06 18:55:27;;;;;;;;;46.00;37.00;;;;;;;;2;261082042;261082042;-78
2022/03/06 19:03:43;;;;;;;;;47.50;33.00;;;;;;;;2;261083176;261083176;-78
2022/03/06 19:12:44;;;;;;;;;48.50;37.00;;;;;;;;2;261087544;261087544;-78
2022/03/06 19:20:59;;;;;;;;;55.50;40.00;;;;;;;;2;261077886;261077886;-78
2022/03/06 19:30:00;;;;;;;;;57.00;40.00;;;;;;;;2;261080630;261080630;-79
2022/03/06 19:38:18;;;;;;;;;27.00;21.50;;;;;;;;2;261079572;261079572;-80
2022/03/06 19:47:19;;;;;;;;;55.50;38.00;;;;;;;;2;261085157;261085157;-81
2022/03/06 19:55:34;;;;;;;;;53.00;32.00;;;;;;;;2;261079436;261079436;-81
2022/03/06 20:04:35;;;;;;;;;48.50;35.00;;;;;;;;2;261080930;261080930;-81
2022/03/06 20:12:50;;;;;;;;;57.50;37.50;;;;;;;;2;261076350;261076350;-81
2022/03/06 20:21:52;;;;;;;;;47.50;34.50;;;;;;;;2;261078152;261078152;-81
2022/03/06 20:30:08;;;;;;;;;29.50;27.50;;;;;;;;2;261080564;261080564;-81
2022/03/06 20:39:09;;;;;;;;;46.00;35.00;;;;;;;;2;261081792;261081792;-81
2022/03/06 20:47:24;;;;;;;;;42.00;37.00;;;;;;;;2;261080195;261080195;-82
2022/03/06 20:56:25;;;;;;;;;49.50;35.50;;;;;;;;2;261079685;261079685;-81
2022/03/06 21:04:40;;;;;;;;;59.50;34.50;;;;;;;;2;261081622;261081622;-81
2022/03/06 21:13:41;;;;;;;;;45.50;32.00;;;;;;;;2;261077762;261077762;-80
2022/03/06 21:21:56;;;;;;;;;37.00;34.00;;;;;;;;2;261079785;261079785;-80
2022/03/06 21:30:57;;;;;;;;;49.00;33.50;;;;;;;;2;261081715;261081715;-81
2022/03/06 21:39:12;;;;;;;;;42.50;27.50;;;;;;;;2;261083594;261083594;-81
2022/03/06 21:48:13;;;;;;;;;51.50;36.00;;;;;;;;2;261084879;261084879;-83
2022/03/06 21:56:28;;;;;;;;;38.50;30.50;;;;;;;;2;261078906;261078906;-82
2022/03/06 22:05:28;;;;;;;;;53.00;37.00;;;;;;;;2;261080883;261080883;-83
2022/03/06 22:13:44;;;;;;;;;44.50;38.50;;;;;;;;2;261079655;261079655;-83
2022/03/06 22:22:44;;;;;;;;;50.50;38.00;;;;;;;;2;261080644;261080644;-83
2022/03/06 22:31:00;;;;;;;;;66.50;43.00;;;;;;;;2;261082165;261082165;-83
2022/03/06 22:40:00;;;;;;;;;46.00;39.00;;;;;;;;2;261081884;261081884;-82
2022/03/06 22:48:16;;;;;;;;;61.50;36.50;;;;;;;;2;261081449;261081449;-82
2022/03/06 22:57:17;;;;;;;;;54.50;36.50;;;;;;;;2;261082336;261082336;-83
2022/03/06 23:14:51;;;;;;;;;43.00;38.00;;;;;;;;2;261082445;261082445;-83
2022/03/06 23:23:07;;;;;;;;;57.50;37.00;;;;;;;;2;261079553;261079553;-83
2022/03/06 23:32:07;;;;;;;;;46.00;35.50;;;;;;;;2;261083213;261083213;-82
2022/03/06 23:40:23;;;;;;;;;48.50;35.50;;;;;;;;2;261078753;261078753;-82
2022/03/06 23:49:23;;;;;;;;;59.00;40.00;;;;;;;;2;261077398;261077398;-82
2022/03/06 23:57:38;;;;;;;;;41.00;36.50;;;;;;;;2;261079022;261079022;-80
